BXS2487 LFRD-LFRG
Flight info
| Callsign | BXS2487 |
|---|---|
| Flight time | 0h 39m |
| Altitude | 9000 |
| Route | EKRAS DCT CAN |
| Aircraft | DC6/M-SDGH/C |
Departure
| Time | 2026-05-07 13:37 |
|---|---|
| Airport | Dinard Pleurtuit Saint-Malo airport (LFRD) |
Arrival
| Time | 2026-05-07 14:16 |
|---|---|
| Airport | Deauville Normandie airport (LFRG) |
| Time | Latitude | Longitude | Altitude | Speed | Heading |
|---|---|---|---|---|---|
| 2026-05-07 13:24 | 48.59210 | -2.07778 | 206 ft | 0 kts | 262° |
| 2026-05-07 13:25 | 48.59210 | -2.07777 | 206 ft | 0 kts | 262° |
| 2026-05-07 13:28 | 48.59210 | -2.07776 | 206 ft | 0 kts | 262° |
| 2026-05-07 13:31 | 48.59210 | -2.07775 | 206 ft | 0 kts | 262° |
| 2026-05-07 13:34 | 48.59210 | -2.07774 | 206 ft | 0 kts | 262° |
| 2026-05-07 13:34 | 48.59225 | -2.07778 | 211 ft | 765 kts | 262° |
| 2026-05-07 13:35 | 48.59933 | -2.08146 | 203 ft | 0 kts | 262° |
| 2026-05-07 13:35 | 48.59791 | -2.08187 | 201 ft | 0 kts | 262° |
| 2026-05-07 13:35 | 48.59780 | -2.08235 | 200 ft | 5 kts | 212° |
| 2026-05-07 13:35 | 48.59736 | -2.08242 | 201 ft | 9 kts | 168° |
| 2026-05-07 13:36 | 48.59732 | -2.08240 | 201 ft | 0 kts | 168° |
| 2026-05-07 13:36 | 48.59704 | -2.08232 | 211 ft | 22 kts | 170° |
| 2026-05-07 13:36 | 48.59357 | -2.08133 | 205 ft | 78 kts | 170° |
| 2026-05-07 13:36 | 48.58658 | -2.07965 | 251 ft | 120 kts | 167° |
| 2026-05-07 13:37 | 48.57781 | -2.07778 | 510 ft | 138 kts | 168° |
| 2026-05-07 13:37 | 48.56789 | -2.07512 | 752 ft | 152 kts | 167° |
| 2026-05-07 13:37 | 48.55707 | -2.07211 | 995 ft | 163 kts | 168° |
| 2026-05-07 13:37 | 48.54573 | -2.06937 | 1193 ft | 166 kts | 168° |
| 2026-05-07 13:38 | 48.53399 | -2.06636 | 1361 ft | 177 kts | 169° |
| 2026-05-07 13:38 | 48.52157 | -2.06330 | 1542 ft | 184 kts | 170° |
| 2026-05-07 13:38 | 48.50880 | -2.06009 | 1741 ft | 188 kts | 169° |
| 2026-05-07 13:38 | 48.49572 | -2.05680 | 1929 ft | 192 kts | 169° |
| 2026-05-07 13:39 | 48.48216 | -2.05510 | 2077 ft | 202 kts | 183° |
| 2026-05-07 13:39 | 48.46863 | -2.06255 | 2222 ft | 216 kts | 211° |
| 2026-05-07 13:39 | 48.45832 | -2.07966 | 2416 ft | 229 kts | 237° |
| 2026-05-07 13:39 | 48.45369 | -2.10312 | 2588 ft | 241 kts | 261° |
| 2026-05-07 13:40 | 48.45591 | -2.12832 | 2757 ft | 248 kts | 286° |
| 2026-05-07 13:40 | 48.46479 | -2.15078 | 2915 ft | 253 kts | 310° |
| 2026-05-07 13:40 | 48.47906 | -2.16617 | 3107 ft | 254 kts | 334° |
| 2026-05-07 13:40 | 48.49618 | -2.17192 | 3288 ft | 254 kts | 359° |
| 2026-05-07 13:41 | 48.51342 | -2.16705 | 3495 ft | 251 kts | 23° |
| 2026-05-07 13:41 | 48.52834 | -2.15393 | 3755 ft | 247 kts | 36° |
| 2026-05-07 13:41 | 48.54324 | -2.14075 | 4014 ft | 249 kts | 28° |
| 2026-05-07 13:41 | 48.55935 | -2.13113 | 4262 ft | 250 kts | 18° |
| 2026-05-07 13:42 | 48.57628 | -2.12737 | 4502 ft | 249 kts | 2° |
| 2026-05-07 13:42 | 48.59356 | -2.12836 | 4762 ft | 248 kts | 357° |
| 2026-05-07 13:42 | 48.61075 | -2.12899 | 5014 ft | 247 kts | 0° |
| 2026-05-07 13:42 | 48.62792 | -2.12846 | 5266 ft | 247 kts | 1° |
| 2026-05-07 13:43 | 48.64513 | -2.12798 | 5520 ft | 248 kts | 1° |
| 2026-05-07 13:43 | 48.66236 | -2.12773 | 5780 ft | 248 kts | 1° |
| 2026-05-07 13:43 | 48.67949 | -2.12745 | 6032 ft | 247 kts | 0° |
| 2026-05-07 13:43 | 48.69672 | -2.12723 | 6293 ft | 247 kts | 1° |
| 2026-05-07 13:44 | 48.71393 | -2.12692 | 6539 ft | 247 kts | 0° |
| 2026-05-07 13:44 | 48.73111 | -2.12662 | 6784 ft | 246 kts | 0° |
| 2026-05-07 13:44 | 48.74792 | -2.12315 | 6997 ft | 245 kts | 19° |
| 2026-05-07 13:44 | 48.76227 | -2.10990 | 7213 ft | 242 kts | 45° |
| 2026-05-07 13:45 | 48.77149 | -2.08916 | 7446 ft | 236 kts | 71° |
| 2026-05-07 13:45 | 48.77596 | -2.06560 | 7707 ft | 231 kts | 78° |
| 2026-05-07 13:45 | 48.78054 | -2.04221 | 7963 ft | 232 kts | 75° |
| 2026-05-07 13:45 | 48.78585 | -2.01886 | 8221 ft | 235 kts | 74° |
| 2026-05-07 13:46 | 48.79113 | -1.99531 | 8483 ft | 237 kts | 75° |
| 2026-05-07 13:46 | 48.79636 | -1.97153 | 8739 ft | 238 kts | 75° |
| 2026-05-07 13:46 | 48.80160 | -1.94777 | 9007 ft | 235 kts | 75° |
| 2026-05-07 13:46 | 48.80677 | -1.92441 | 9055 ft | 235 kts | 74° |
| 2026-05-07 13:47 | 48.81200 | -1.90112 | 9050 ft | 237 kts | 74° |
| 2026-05-07 13:47 | 48.81718 | -1.87739 | 9050 ft | 238 kts | 75° |
| 2026-05-07 13:47 | 48.82240 | -1.85334 | 9058 ft | 242 kts | 74° |
| 2026-05-07 13:47 | 48.82775 | -1.82902 | 9066 ft | 244 kts | 74° |
| 2026-05-07 13:48 | 48.83313 | -1.80448 | 9069 ft | 246 kts | 74° |
| 2026-05-07 13:48 | 48.83857 | -1.77969 | 9069 ft | 248 kts | 74° |
| 2026-05-07 13:48 | 48.84401 | -1.75472 | 9069 ft | 250 kts | 74° |
| 2026-05-07 13:48 | 48.84950 | -1.72965 | 9068 ft | 251 kts | 74° |
| 2026-05-07 13:49 | 48.85500 | -1.70441 | 9070 ft | 252 kts | 74° |
| 2026-05-07 13:49 | 48.86051 | -1.67912 | 9071 ft | 253 kts | 73° |
| 2026-05-07 13:49 | 48.86604 | -1.65369 | 9067 ft | 253 kts | 74° |
| 2026-05-07 13:49 | 48.87158 | -1.62824 | 9069 ft | 254 kts | 73° |
| 2026-05-07 13:50 | 48.87710 | -1.60276 | 9068 ft | 254 kts | 73° |
| 2026-05-07 13:50 | 48.88263 | -1.57727 | 9067 ft | 254 kts | 73° |
| 2026-05-07 13:50 | 48.88816 | -1.55176 | 9061 ft | 255 kts | 73° |
| 2026-05-07 13:50 | 48.89368 | -1.52617 | 9064 ft | 255 kts | 73° |
| 2026-05-07 13:51 | 48.89921 | -1.50052 | 9070 ft | 256 kts | 73° |
| 2026-05-07 13:51 | 48.90604 | -1.47555 | 9061 ft | 256 kts | 68° |
| 2026-05-07 13:51 | 48.91274 | -1.45034 | 9066 ft | 257 kts | 70° |
| 2026-05-07 13:51 | 48.91934 | -1.42504 | 9062 ft | 258 kts | 69° |
| 2026-05-07 13:52 | 48.92612 | -1.39979 | 9066 ft | 258 kts | 69° |
| 2026-05-07 13:52 | 48.93289 | -1.37451 | 9066 ft | 258 kts | 69° |
| 2026-05-07 13:52 | 48.93962 | -1.34918 | 9068 ft | 258 kts | 69° |
| 2026-05-07 13:52 | 48.94635 | -1.32383 | 9063 ft | 259 kts | 69° |
| 2026-05-07 13:53 | 48.95312 | -1.29846 | 9066 ft | 259 kts | 69° |
| 2026-05-07 13:53 | 48.95979 | -1.27344 | 9066 ft | 258 kts | 69° |
| 2026-05-07 13:53 | 48.96649 | -1.24806 | 9065 ft | 258 kts | 69° |
| 2026-05-07 13:53 | 48.97323 | -1.22275 | 9063 ft | 258 kts | 69° |
| 2026-05-07 13:54 | 48.97995 | -1.19741 | 9063 ft | 258 kts | 69° |
| 2026-05-07 13:54 | 48.98664 | -1.17212 | 9061 ft | 258 kts | 69° |
| 2026-05-07 13:54 | 48.99331 | -1.14681 | 9060 ft | 257 kts | 69° |
| 2026-05-07 13:54 | 48.99999 | -1.12148 | 9061 ft | 258 kts | 69° |
| 2026-05-07 13:55 | 49.00669 | -1.09613 | 9062 ft | 258 kts | 69° |
| 2026-05-07 13:55 | 49.01339 | -1.07069 | 9057 ft | 259 kts | 69° |
| 2026-05-07 13:55 | 49.02008 | -1.04519 | 9061 ft | 259 kts | 69° |
| 2026-05-07 13:55 | 49.02681 | -1.01970 | 9061 ft | 259 kts | 69° |
| 2026-05-07 13:56 | 49.03350 | -0.99417 | 9060 ft | 259 kts | 69° |
| 2026-05-07 13:56 | 49.04022 | -0.96864 | 9064 ft | 260 kts | 69° |
| 2026-05-07 13:56 | 49.04693 | -0.94308 | 9061 ft | 260 kts | 69° |
| 2026-05-07 13:56 | 49.05361 | -0.91743 | 9065 ft | 260 kts | 69° |
| 2026-05-07 13:57 | 49.06027 | -0.89186 | 9065 ft | 260 kts | 69° |
| 2026-05-07 13:57 | 49.06701 | -0.86623 | 9067 ft | 260 kts | 69° |
| 2026-05-07 13:57 | 49.07366 | -0.84064 | 9072 ft | 259 kts | 69° |
| 2026-05-07 13:57 | 49.08031 | -0.81506 | 9078 ft | 260 kts | 69° |
| 2026-05-07 13:58 | 49.08690 | -0.78978 | 9075 ft | 260 kts | 69° |
| 2026-05-07 13:58 | 49.09356 | -0.76407 | 9077 ft | 260 kts | 69° |
| 2026-05-07 13:58 | 49.10027 | -0.73840 | 9083 ft | 261 kts | 69° |
| 2026-05-07 13:58 | 49.10694 | -0.71266 | 9081 ft | 261 kts | 69° |
| 2026-05-07 13:59 | 49.11360 | -0.68695 | 9084 ft | 260 kts | 69° |
| 2026-05-07 13:59 | 49.12025 | -0.66117 | 9084 ft | 260 kts | 69° |
| 2026-05-07 13:59 | 49.12691 | -0.63547 | 9083 ft | 260 kts | 69° |
| 2026-05-07 13:59 | 49.13356 | -0.60986 | 9085 ft | 259 kts | 69° |
| 2026-05-07 14:00 | 49.14012 | -0.58425 | 9077 ft | 259 kts | 69° |
| 2026-05-07 14:00 | 49.14671 | -0.55860 | 9080 ft | 259 kts | 69° |
| 2026-05-07 14:00 | 49.15331 | -0.53304 | 9081 ft | 259 kts | 69° |
| 2026-05-07 14:00 | 49.15991 | -0.50743 | 9081 ft | 259 kts | 69° |
| 2026-05-07 14:01 | 49.16649 | -0.48173 | 9086 ft | 259 kts | 69° |
| 2026-05-07 14:01 | 49.17301 | -0.45607 | 9086 ft | 258 kts | 70° |
| 2026-05-07 14:01 | 49.17795 | -0.42974 | 9079 ft | 258 kts | 75° |
| 2026-05-07 14:01 | 49.18261 | -0.40365 | 9079 ft | 258 kts | 75° |
| 2026-05-07 14:02 | 49.18757 | -0.37697 | 9081 ft | 258 kts | 74° |
| 2026-05-07 14:02 | 49.19232 | -0.35100 | 9082 ft | 258 kts | 75° |
| 2026-05-07 14:02 | 49.19706 | -0.32453 | 9081 ft | 258 kts | 74° |
| 2026-05-07 14:02 | 49.20189 | -0.29815 | 9082 ft | 257 kts | 74° |
| 2026-05-07 14:03 | 49.20670 | -0.27179 | 9084 ft | 258 kts | 74° |
| 2026-05-07 14:03 | 49.21145 | -0.24538 | 9077 ft | 257 kts | 75° |
| 2026-05-07 14:03 | 49.21619 | -0.21894 | 9079 ft | 258 kts | 74° |
| 2026-05-07 14:03 | 49.22101 | -0.19246 | 9081 ft | 258 kts | 74° |
| 2026-05-07 14:04 | 49.22423 | -0.17458 | 9082 ft | 258 kts | 74° |
| 2026-05-07 14:04 | 49.22893 | -0.14870 | 9074 ft | 247 kts | 74° |
| 2026-05-07 14:04 | 49.23338 | -0.12382 | 9069 ft | 238 kts | 74° |
| 2026-05-07 14:04 | 49.23773 | -0.09963 | 8929 ft | 235 kts | 74° |
| 2026-05-07 14:05 | 49.24198 | -0.07584 | 8792 ft | 235 kts | 74° |
| 2026-05-07 14:05 | 49.24630 | -0.05182 | 8634 ft | 234 kts | 74° |
| 2026-05-07 14:05 | 49.25058 | -0.02790 | 8471 ft | 232 kts | 74° |
| 2026-05-07 14:05 | 49.25481 | -0.00405 | 8321 ft | 232 kts | 74° |
| 2026-05-07 14:06 | 49.25909 | 0.01981 | 8161 ft | 232 kts | 74° |
| 2026-05-07 14:06 | 49.26332 | 0.04361 | 8010 ft | 232 kts | 74° |
| 2026-05-07 14:06 | 49.26754 | 0.06753 | 7854 ft | 232 kts | 74° |
| 2026-05-07 14:06 | 49.27181 | 0.09132 | 7707 ft | 231 kts | 74° |
| 2026-05-07 14:07 | 49.27601 | 0.11504 | 7541 ft | 230 kts | 74° |
| 2026-05-07 14:07 | 49.28015 | 0.13853 | 7332 ft | 226 kts | 74° |
| 2026-05-07 14:07 | 49.28426 | 0.16162 | 7125 ft | 223 kts | 74° |
| 2026-05-07 14:07 | 49.28826 | 0.18439 | 6920 ft | 220 kts | 75° |
| 2026-05-07 14:08 | 49.29349 | 0.20620 | 6702 ft | 219 kts | 59° |
| 2026-05-07 14:08 | 49.30345 | 0.22348 | 6487 ft | 214 kts | 47° |
| 2026-05-07 14:08 | 49.30914 | 0.24419 | 6196 ft | 216 kts | 86° |
| 2026-05-07 14:08 | 49.30511 | 0.26580 | 5942 ft | 214 kts | 125° |
| 2026-05-07 14:09 | 49.29359 | 0.27961 | 5742 ft | 208 kts | 150° |
| 2026-05-07 14:09 | 49.28432 | 0.29622 | 5498 ft | 209 kts | 111° |
| 2026-05-07 14:09 | 49.28038 | 0.31762 | 5319 ft | 210 kts | 104° |
| 2026-05-07 14:09 | 49.27650 | 0.33932 | 5020 ft | 213 kts | 105° |
| 2026-05-07 14:10 | 49.27264 | 0.36132 | 4722 ft | 215 kts | 105° |
| 2026-05-07 14:10 | 49.26872 | 0.38341 | 4419 ft | 215 kts | 106° |
| 2026-05-07 14:10 | 49.26334 | 0.40476 | 4089 ft | 213 kts | 111° |
| 2026-05-07 14:10 | 49.26276 | 0.42705 | 3782 ft | 212 kts | 72° |
| 2026-05-07 14:11 | 49.27145 | 0.44389 | 3619 ft | 204 kts | 31° |
| 2026-05-07 14:11 | 49.28484 | 0.44766 | 3496 ft | 196 kts | 349° |
| 2026-05-07 14:11 | 49.29579 | 0.43701 | 3400 ft | 187 kts | 305° |
| 2026-05-07 14:11 | 49.30115 | 0.41958 | 3363 ft | 177 kts | 291° |
| 2026-05-07 14:12 | 49.30526 | 0.40218 | 3279 ft | 171 kts | 281° |
| 2026-05-07 14:12 | 49.30645 | 0.38434 | 3253 ft | 165 kts | 272° |
| 2026-05-07 14:12 | 49.30713 | 0.36699 | 3191 ft | 162 kts | 274° |
| 2026-05-07 14:12 | 49.30770 | 0.34972 | 3110 ft | 165 kts | 272° |
| 2026-05-07 14:13 | 49.31047 | 0.33209 | 2924 ft | 179 kts | 283° |
| 2026-05-07 14:13 | 49.31270 | 0.31253 | 2640 ft | 192 kts | 287° |
| 2026-05-07 14:13 | 49.31832 | 0.29486 | 2411 ft | 177 kts | 297° |
| 2026-05-07 14:13 | 49.32353 | 0.27867 | 2165 ft | 166 kts | 295° |
| 2026-05-07 14:14 | 49.32873 | 0.26332 | 1927 ft | 155 kts | 298° |
| 2026-05-07 14:14 | 49.33349 | 0.24923 | 1728 ft | 146 kts | 296° |
| 2026-05-07 14:14 | 49.33793 | 0.23574 | 1536 ft | 138 kts | 298° |
| 2026-05-07 14:14 | 49.34224 | 0.22318 | 1386 ft | 129 kts | 296° |
| 2026-05-07 14:15 | 49.34623 | 0.21083 | 1184 ft | 127 kts | 299° |
| 2026-05-07 14:15 | 49.35013 | 0.19943 | 1007 ft | 116 kts | 299° |
| 2026-05-07 14:15 | 49.35370 | 0.18881 | 847 ft | 108 kts | 299° |
| 2026-05-07 14:15 | 49.35696 | 0.17881 | 701 ft | 100 kts | 301° |
| 2026-05-07 14:16 | 49.36012 | 0.16965 | 528 ft | 95 kts | 301° |
| 2026-05-07 14:16 | 49.36300 | 0.16146 | 472 ft | 77 kts | 295° |
| 2026-05-07 14:16 | 49.36461 | 0.15659 | 475 ft | 18 kts | 296° |